Time;durP1;ratioP1;P1;durP2;ratioP2;P2;SDS_P1;SDS_P2;PMS_P1;PMS_P2;Temp;Humidity;BMP_temperature;BMP_pressure;BME280_temperature;BME280_humidity;BME280_pressure;Samples;Min_cycle;Max_cycle;Signal;HPM_P1;HPM_P2
2022/06/16 00:00:05;;;;;;;9.10;8.40;;;21.70;67.30;;;;;;5156908;27;20475;-67
2022/06/16 00:02:32;;;;;;;9.17;8.37;;;21.60;67.00;;;;;;5156908;27;20437;-67
2022/06/16 00:05:00;;;;;;;8.43;7.63;;;21.60;66.80;;;;;;5156911;27;20910;-67
2022/06/16 00:07:27;;;;;;;8.70;7.97;;;21.50;67.80;;;;;;5156951;27;20437;-67
2022/06/16 00:09:54;;;;;;;7.70;7.10;;;21.40;68.20;;;;;;5156825;27;20555;-67
2022/06/16 00:12:20;;;;;;;8.37;7.57;;;21.40;68.60;;;;;;5155619;27;20444;-67
2022/06/16 00:14:47;;;;;;;9.10;8.30;;;21.30;69.00;;;;;;5156676;27;20926;-67
2022/06/16 00:17:14;;;;;;;9.73;8.83;;;21.30;69.70;;;;;;5156735;27;20493;-67
2022/06/16 00:19:41;;;;;;;9.30;8.60;;;21.20;69.80;;;;;;5156586;27;20500;-67
2022/06/16 00:22:09;;;;;;;8.60;7.90;;;21.20;70.30;;;;;;5156475;27;20457;-67
2022/06/16 00:24:36;;;;;;;8.17;7.30;;;21.20;70.10;;;;;;5156893;27;20523;-67
2022/06/16 00:27:03;;;;;;;9.20;8.50;;;21.20;69.80;;;;;;5156455;27;20970;-67
2022/06/16 00:29:30;;;;;;;8.37;7.67;;;21.20;69.70;;;;;;5156340;27;21034;-67
2022/06/16 00:31:57;;;;;;;7.80;7.30;;;21.20;69.40;;;;;;5156349;27;20457;-67
2022/06/16 00:34:24;;;;;;;8.17;7.50;;;21.10;70.50;;;;;;5155948;27;20436;-67
2022/06/16 00:36:51;;;;;;;8.63;7.83;;;21.10;70.20;;;;;;5156473;27;20493;-67
2022/06/16 00:39:20;;;;;;;8.27;7.63;;;21.00;70.60;;;;;;5156764;27;20444;-67
2022/06/16 00:41:47;;;;;;;8.37;7.57;;;21.00;70.80;;;;;;5156284;27;20503;-67
2022/06/16 00:44:36;;;;;;;8.33;7.57;;;20.90;71.00;;;;;;5156006;27;20498;-67
2022/06/16 00:47:04;;;;;;;7.90;7.30;;;21.00;70.50;;;;;;5156240;27;20436;-67
2022/06/16 00:49:31;;;;;;;8.37;7.60;;;21.00;69.50;;;;;;5156387;27;20831;-67
2022/06/16 00:52:02;;;;;;;8.67;7.87;;;20.90;69.40;;;;;;5155741;27;20467;-67
2022/06/16 00:54:33;;;;;;;7.90;7.30;;;20.90;70.50;;;;;;5155516;27;20567;-67
2022/06/16 00:57:04;;;;;;;8.10;7.40;;;20.90;70.80;;;;;;5155947;27;20859;-67
2022/06/16 00:59:31;;;;;;;8.00;7.40;;;20.90;71.60;;;;;;5155765;27;20442;-67
2022/06/16 01:02:00;;;;;;;8.83;8.03;;;21.00;71.10;;;;;;5155603;27;20468;-67
2022/06/16 01:07:14;;;;;;;8.30;7.60;;;21.00;71.80;;;;;;5155847;27;20420;-67
2022/06/16 01:09:44;;;;;;;8.30;7.50;;;20.90;71.40;;;;;;5155876;27;20436;-67
2022/06/16 01:15:31;;;;;;;8.00;7.30;;;20.90;72.10;;;;;;5155761;27;20415;-67
2022/06/16 01:18:04;;;;;;;7.93;7.20;;;20.80;71.50;;;;;;5155857;27;20504;-67
2022/06/16 01:20:43;;;;;;;7.97;7.37;;;20.80;72.70;;;;;;5155242;27;20461;-67
2022/06/16 01:23:55;;;;;;;8.00;7.40;;;20.70;72.80;;;;;;5155342;27;20439;-67
2022/06/16 01:26:51;;;;;;;7.63;7.00;;;20.70;73.30;;;;;;5155426;27;20986;-67
2022/06/16 01:29:25;;;;;;;7.83;7.23;;;20.70;73.20;;;;;;5142227;27;20509;-67
2022/06/16 01:32:02;;;;;;;8.17;7.47;;;20.60;73.60;;;;;;5155078;27;20998;-67
2022/06/16 01:34:38;;;;;;;9.00;8.20;;;20.60;74.60;;;;;;5155217;27;20454;-67
2022/06/16 01:37:13;;;;;;;9.60;8.80;;;20.60;75.60;;;;;;5155488;27;20484;-67
2022/06/16 01:39:47;;;;;;;12.10;9.40;;;20.60;76.90;;;;;;5155397;27;20440;-67
2022/06/16 01:42:20;;;;;;;9.80;8.93;;;20.60;76.90;;;;;;5154924;27;20904;-67
2022/06/16 01:44:58;;;;;;;8.73;8.03;;;20.60;77.70;;;;;;5155274;27;20830;-67
2022/06/16 01:47:30;;;;;;;9.53;8.63;;;20.60;78.20;;;;;;5155254;27;20487;-67
2022/06/16 01:50:01;;;;;;;10.43;9.60;;;20.60;78.10;;;;;;5155103;27;20471;-67
2022/06/16 01:52:35;;;;;;;9.70;8.80;;;20.50;78.60;;;;;;5154969;27;20428;-68
2022/06/16 01:55:08;;;;;;;9.43;8.73;;;20.50;79.00;;;;;;5155237;27;20842;-67
2022/06/16 01:57:39;;;;;;;9.20;8.13;;;20.40;79.60;;;;;;5155179;27;20985;-67
2022/06/16 02:00:10;;;;;;;9.37;8.57;;;20.40;79.90;;;;;;5155489;27;20468;-67
2022/06/16 02:02:40;;;;;;;8.97;8.17;;;20.40;80.00;;;;;;5155124;27;20431;-66
2022/06/16 02:05:10;;;;;;;8.97;8.23;;;20.30;78.70;;;;;;5155065;27;20447;-67
2022/06/16 02:07:40;;;;;;;11.20;8.50;;;20.30;79.20;;;;;;5155067;27;20431;-67
2022/06/16 02:10:11;;;;;;;8.83;8.03;;;20.30;80.50;;;;;;5154928;27;20938;-67
2022/06/16 02:12:57;;;;;;;8.37;7.20;;;20.30;79.10;;;;;;5154962;27;20488;-67
2022/06/16 02:15:36;;;;;;;8.13;7.33;;;20.20;79.50;;;;;;5154876;27;20502;-67
2022/06/16 02:18:06;;;;;;;8.67;7.97;;;20.20;80.70;;;;;;5154990;27;20434;-67
2022/06/16 02:20:39;;;;;;;9.10;8.30;;;20.20;79.70;;;;;;5154605;27;20989;-67
2022/06/16 02:23:06;;;;;;;8.87;7.97;;;20.20;80.60;;;;;;5154710;27;20908;-67
2022/06/16 02:25:33;;;;;;;7.80;7.20;;;20.10;80.20;;;;;;5155632;27;20496;-67
2022/06/16 02:28:00;;;;;;;8.63;7.83;;;20.10;80.90;;;;;;5155702;27;20435;-67
2022/06/16 02:30:31;;;;;;;9.87;7.90;;;20.10;80.60;;;;;;5154927;27;20483;-67
2022/06/16 02:33:07;;;;;;;8.40;7.50;;;19.90;81.20;;;;;;5154933;27;20495;-67
2022/06/16 02:35:41;;;;;;;9.10;8.40;;;19.70;81.90;;;;;;5157152;27;20494;-67
2022/06/16 02:38:20;;;;;;;9.10;8.30;;;19.70;82.90;;;;;;5158888;27;20488;-67
2022/06/16 02:41:01;;;;;;;7.80;7.20;;;19.80;83.30;;;;;;5158584;27;20860;-68
2022/06/16 02:43:45;;;;;;;7.53;6.93;;;19.80;83.50;;;;;;5158303;27;20916;-67
2022/06/16 02:46:22;;;;;;;8.87;8.17;;;19.80;82.80;;;;;;5158493;27;20920;-68
2022/06/16 02:48:57;;;;;;;8.60;7.80;;;19.80;83.60;;;;;;5158688;27;20525;-67
2022/06/16 02:51:29;;;;;;;7.70;7.00;;;19.90;83.50;;;;;;5158530;27;20477;-67
2022/06/16 02:54:03;;;;;;;8.20;7.60;;;19.90;83.20;;;;;;5157841;27;21012;-67
2022/06/16 02:56:37;;;;;;;8.17;7.47;;;19.90;84.50;;;;;;5158364;27;20445;-67
2022/06/16 02:59:09;;;;;;;8.03;7.33;;;19.80;83.00;;;;;;5158419;27;20454;-67
2022/06/16 03:01:36;;;;;;;7.80;7.20;;;19.70;84.00;;;;;;5158282;27;20812;-67
2022/06/16 03:04:09;;;;;;;7.97;7.17;;;19.70;84.60;;;;;;5157791;27;20292;-67
2022/06/16 03:06:36;;;;;;;7.80;7.20;;;19.60;84.00;;;;;;5158304;27;20518;-67
2022/06/16 03:09:04;;;;;;;7.70;7.00;;;19.60;84.20;;;;;;5158009;27;20294;-67
2022/06/16 03:11:31;;;;;;;7.30;6.70;;;19.60;83.90;;;;;;5158035;27;20305;-67
2022/06/16 03:13:58;;;;;;;7.32;6.82;;;19.50;84.00;;;;;;5157937;27;20473;-67
2022/06/16 03:16:26;;;;;;;7.25;6.65;;;19.40;85.20;;;;;;5158008;27;20289;-67
2022/06/16 03:18:53;;;;;;;7.70;7.00;;;19.50;86.00;;;;;;5158041;27;20293;-67
2022/06/16 03:21:21;;;;;;;7.80;7.10;;;19.40;86.90;;;;;;5158385;27;20303;-67
2022/06/16 03:23:48;;;;;;;8.20;7.50;;;19.20;87.10;;;;;;5157761;27;20295;-67
2022/06/16 03:26:15;;;;;;;7.88;7.18;;;19.20;87.10;;;;;;5157903;27;20307;-67
2022/06/16 03:28:42;;;;;;;8.30;7.50;;;19.30;87.80;;;;;;5157823;27;20286;-67
2022/06/16 03:31:09;;;;;;;8.07;7.38;;;19.30;87.40;;;;;;5157444;27;20317;-67
2022/06/16 03:33:36;;;;;;;8.23;7.53;;;19.30;87.30;;;;;;5157547;27;20291;-67
2022/06/16 03:36:03;;;;;;;8.20;7.50;;;19.30;88.50;;;;;;5157712;27;20239;-67
2022/06/16 03:38:35;;;;;;;8.05;7.35;;;19.30;88.30;;;;;;5157646;27;20205;-67
2022/06/16 03:41:02;;;;;;;7.93;7.32;;;19.20;88.80;;;;;;5157707;27;20217;-67
2022/06/16 03:43:29;;;;;;;7.90;7.20;;;19.20;89.30;;;;;;5157405;27;20295;-67
2022/06/16 03:45:56;;;;;;;8.35;7.55;;;19.30;89.30;;;;;;5156388;27;20297;-67
2022/06/16 03:48:23;;;;;;;8.43;7.50;;;19.30;89.30;;;;;;5156937;27;20210;-67
2022/06/16 03:50:49;;;;;;;8.10;7.50;;;19.20;90.20;;;;;;5157260;27;20602;-67
2022/06/16 03:53:16;;;;;;;8.30;7.57;;;19.30;89.80;;;;;;5156842;27;20304;-67
2022/06/16 03:55:45;;;;;;;8.93;8.07;;;19.30;89.90;;;;;;5157287;27;20205;-67
2022/06/16 03:58:13;;;;;;;8.35;7.63;;;19.20;90.90;;;;;;5156948;27;20481;-67
2022/06/16 04:00:40;;;;;;;9.65;8.32;;;19.10;91.20;;;;;;5157166;27;20217;-67
2022/06/16 04:05:52;;;;;;;8.82;8.13;;;19.20;92.10;;;;;;5157167;27;20201;-68
2022/06/16 04:08:19;;;;;;;8.27;7.50;;;19.30;92.30;;;;;;5157144;27;20613;-67
2022/06/16 04:10:48;;;;;;;8.37;7.67;;;19.40;92.40;;;;;;5157047;27;20490;-68
2022/06/16 04:13:16;;;;;;;7.63;7.03;;;19.50;92.80;;;;;;5156768;27;20435;-68
2022/06/16 04:15:43;;;;;;;8.60;7.80;;;19.50;93.20;;;;;;5156883;27;20558;-67
2022/06/16 04:18:10;;;;;;;9.13;8.35;;;19.50;93.40;;;;;;5156794;27;20526;-67
2022/06/16 04:20:37;;;;;;;8.60;7.90;;;19.50;92.90;;;;;;5156517;27;20305;-67
2022/06/16 04:23:05;;;;;;;8.73;8.03;;;19.50;92.00;;;;;;5156633;27;20540;-67
2022/06/16 04:25:34;;;;;;;9.13;8.23;;;19.50;92.20;;;;;;5156717;27;20446;-67
2022/06/16 04:28:05;;;;;;;8.65;7.95;;;19.30;93.50;;;;;;5156704;27;20202;-67
2022/06/16 04:30:32;;;;;;;8.83;7.63;;;19.20;94.60;;;;;;5156338;27;20621;-67
2022/06/16 04:33:00;;;;;;;8.97;8.27;;;19.40;95.10;;;;;;5156099;27;21021;-67
2022/06/16 04:35:28;;;;;;;9.00;8.30;;;19.50;95.30;;;;;;5156400;27;20530;-67
2022/06/16 04:37:56;;;;;;;9.40;8.60;;;19.70;95.70;;;;;;5156371;27;20538;-67
2022/06/16 04:40:23;;;;;;;9.10;8.30;;;19.80;95.80;;;;;;5156058;27;20546;-67
2022/06/16 04:42:49;;;;;;;9.00;8.20;;;19.90;96.10;;;;;;5156120;27;20523;-67
2022/06/16 04:45:18;;;;;;;8.87;8.10;;;19.90;95.30;;;;;;5156139;27;21108;-67
2022/06/16 04:47:45;;;;;;;8.30;7.70;;;19.90;95.00;;;;;;5156248;27;20873;-68
2022/06/16 04:50:17;;;;;;;8.60;7.90;;;19.90;95.20;;;;;;5156067;27;20550;-67
2022/06/16 04:52:44;;;;;;;10.03;9.13;;;19.80;95.40;;;;;;5155852;27;20502;-67
2022/06/16 04:55:11;;;;;;;10.73;9.73;;;19.70;95.80;;;;;;5156175;27;20446;-67
2022/06/16 04:57:39;;;;;;;10.15;9.35;;;19.60;97.50;;;;;;5155747;27;20801;-67
2022/06/16 05:00:08;;;;;;;9.60;8.67;;;19.60;98.40;;;;;;5155857;27;20201;-67
2022/06/16 05:02:36;;;;;;;9.60;8.80;;;19.60;98.80;;;;;;5155938;27;20846;-67
2022/06/16 05:05:03;;;;;;;9.70;8.90;;;19.70;99.30;;;;;;5155652;27;21010;-67
2022/06/16 05:07:30;;;;;;;10.67;9.70;;;19.90;99.60;;;;;;5155873;27;20534;-67
2022/06/16 05:09:57;;;;;;;10.23;9.37;;;20.00;99.60;;;;;;5155811;27;20842;-67
2022/06/16 05:12:24;;;;;;;9.80;9.00;;;20.10;99.20;;;;;;5155352;27;20475;-67
2022/06/16 05:14:52;;;;;;;11.10;9.10;;;20.10;99.00;;;;;;5155774;27;20802;-67
2022/06/16 05:17:19;;;;;;;9.93;9.03;;;20.20;97.90;;;;;;5155702;27;20440;-67
2022/06/16 05:19:47;;;;;;;9.70;8.80;;;20.20;97.80;;;;;;5155394;27;20447;-67
2022/06/16 05:22:14;;;;;;;9.80;9.13;;;20.10;97.70;;;;;;5155597;27;20521;-67
2022/06/16 05:24:41;;;;;;;10.10;9.20;;;20.00;97.60;;;;;;5155646;27;20533;-67
2022/06/16 05:27:08;;;;;;;9.40;8.70;;;19.80;98.20;;;;;;5155422;27;20504;-67
2022/06/16 05:29:35;;;;;;;9.93;9.03;;;19.80;99.20;;;;;;5155477;27;20530;-67
2022/06/16 05:32:02;;;;;;;10.03;9.23;;;19.90;98.70;;;;;;5155278;27;20474;-67
2022/06/16 05:34:28;;;;;;;9.67;8.93;;;20.00;99.70;;;;;;5155390;27;20527;-67
2022/06/16 05:36:57;;;;;;;9.30;8.60;;;20.10;99.90;;;;;;5155523;27;20534;-67
2022/06/16 05:39:24;;;;;;;9.13;8.40;;;20.10;99.90;;;;;;5155448;27;20441;-67
2022/06/16 05:41:50;;;;;;;9.43;8.57;;;20.10;99.90;;;;;;5155693;27;20499;-67
2022/06/16 05:44:17;;;;;;;10.03;9.00;;;20.10;99.70;;;;;;5155250;27;20523;-66
2022/06/16 05:46:44;;;;;;;10.47;9.57;;;20.10;99.00;;;;;;5155197;27;20439;-67
2022/06/16 05:49:13;;;;;;;9.40;8.50;;;20.10;98.40;;;;;;5155308;27;20534;-67
2022/06/16 05:51:40;;;;;;;9.60;8.90;;;20.30;97.60;;;;;;5155209;27;20484;-67
2022/06/16 05:54:09;;;;;;;9.10;8.30;;;20.50;97.70;;;;;;5154949;27;20448;-67
2022/06/16 05:56:36;;;;;;;9.27;8.40;;;20.70;97.40;;;;;;5155156;27;20449;-67
2022/06/16 05:59:03;;;;;;;9.20;8.47;;;20.70;98.40;;;;;;5155140;27;20532;-68
2022/06/16 06:01:30;;;;;;;9.67;8.83;;;20.70;97.80;;;;;;5155216;27;20492;-67
2022/06/16 06:03:57;;;;;;;9.00;8.27;;;20.70;97.10;;;;;;5155049;27;20527;-68
2022/06/16 06:06:24;;;;;;;8.93;8.13;;;20.70;96.60;;;;;;5155358;27;20442;-68
2022/06/16 06:17:17;;;;;;;9.23;8.50;;;21.20;96.30;;;;;;5159281;27;20448;-67
2022/06/16 06:19:44;;;;;;;8.77;8.07;;;21.20;96.30;;;;;;5158838;27;20536;-68
2022/06/16 06:22:14;;;;;;;9.03;8.13;;;21.30;96.20;;;;;;5158808;27;20544;-68
2022/06/16 06:24:44;;;;;;;8.97;8.30;;;21.40;96.60;;;;;;5159049;27;20449;-68
2022/06/16 06:27:16;;;;;;;9.40;8.50;;;21.40;95.10;;;;;;5159317;27;20852;-68
2022/06/16 06:29:43;;;;;;;8.80;8.13;;;21.50;94.80;;;;;;5159040;27;20440;-67
2022/06/16 06:32:11;;;;;;;8.60;7.80;;;21.50;94.70;;;;;;5158377;27;20567;-67
2022/06/16 06:34:38;;;;;;;8.47;7.67;;;21.60;94.90;;;;;;5158625;27;20996;-67
2022/06/16 06:37:06;;;;;;;8.27;7.67;;;21.50;94.10;;;;;;5159473;27;20877;-68
2022/06/16 06:39:34;;;;;;;8.40;7.60;;;21.60;93.90;;;;;;5158723;27;20441;-68
2022/06/16 06:42:03;;;;;;;8.37;7.67;;;21.60;92.60;;;;;;5158926;27;20546;-68
2022/06/16 06:44:32;;;;;;;8.30;7.60;;;21.80;92.00;;;;;;5158440;27;20516;-67
2022/06/16 06:46:59;;;;;;;8.47;7.77;;;22.10;93.00;;;;;;5158499;27;20994;-68
2022/06/16 06:49:26;;;;;;;7.50;6.90;;;22.30;92.70;;;;;;5158352;27;20432;-68
2022/06/16 06:51:53;;;;;;;8.27;7.67;;;22.50;92.80;;;;;;5158486;27;20563;-68
2022/06/16 06:54:20;;;;;;;8.57;7.87;;;22.70;94.40;;;;;;5158054;27;21005;-68
2022/06/16 06:56:50;;;;;;;8.23;7.63;;;22.70;93.70;;;;;;5158480;27;20493;-68
2022/06/16 06:59:19;;;;;;;8.63;7.93;;;22.70;91.80;;;;;;5158440;27;20872;-68
2022/06/16 07:01:49;;;;;;;9.93;9.03;;;22.90;90.40;;;;;;5158082;27;20508;-68
2022/06/16 07:04:16;;;;;;;8.57;7.87;;;22.90;90.50;;;;;;5157932;27;20532;-68
2022/06/16 07:06:44;;;;;;;9.37;8.57;;;22.90;91.30;;;;;;5158288;27;20433;-68
2022/06/16 07:09:11;;;;;;;9.30;8.40;;;22.80;90.70;;;;;;5158262;27;20524;-67
2022/06/16 07:11:40;;;;;;;10.23;9.17;;;22.80;90.20;;;;;;5157764;27;20978;-68
2022/06/16 07:14:07;;;;;;;9.20;8.40;;;22.70;90.00;;;;;;5157952;27;20488;-68
2022/06/16 07:16:35;;;;;;;9.80;8.93;;;22.70;90.30;;;;;;5158062;27;20444;-67
2022/06/16 07:19:04;;;;;;;9.30;8.60;;;22.90;90.50;;;;;;5158095;27;20490;-68
2022/06/16 07:21:31;;;;;;;9.43;8.53;;;23.10;89.70;;;;;;5157886;27;20863;-68
2022/06/16 07:23:58;;;;;;;8.73;8.03;;;23.30;88.80;;;;;;5157715;27;20444;-68
2022/06/16 07:26:25;;;;;;;8.67;8.07;;;23.40;86.60;;;;;;5157838;27;20520;-68
2022/06/16 07:28:52;;;;;;;8.67;8.00;;;23.50;88.00;;;;;;5157787;27;20865;-68
2022/06/16 07:31:19;;;;;;;9.40;8.53;;;23.80;87.20;;;;;;5157719;27;20518;-68
2022/06/16 07:33:46;;;;;;;8.73;8.13;;;23.90;85.60;;;;;;5157546;27;20435;-68
2022/06/16 07:36:14;;;;;;;9.97;9.23;;;23.80;86.10;;;;;;5157653;27;20547;-68
2022/06/16 07:38:41;;;;;;;8.00;7.30;;;23.80;83.40;;;;;;5157655;27;20517;-68
2022/06/16 07:43:53;;;;;;;8.77;8.07;;;23.70;86.30;;;;;;5157383;27;20414;-68
2022/06/16 07:46:20;;;;;;;8.80;8.10;;;23.60;84.70;;;;;;5157444;27;20506;-68
2022/06/16 07:48:47;;;;;;;8.77;8.07;;;23.50;84.90;;;;;;5157223;27;20453;-68
2022/06/16 07:51:15;;;;;;;9.27;8.57;;;23.70;84.50;;;;;;5157136;27;20559;-68
2022/06/16 07:53:42;;;;;;;9.30;8.50;;;24.20;86.10;;;;;;5156850;27;20854;-68
2022/06/16 07:56:09;;;;;;;9.20;8.50;;;24.40;84.40;;;;;;5157290;27;20440;-67
2022/06/16 07:58:36;;;;;;;10.17;9.37;;;24.60;82.20;;;;;;5157037;27;20934;-68
2022/06/16 08:01:07;;;;;;;9.70;8.80;;;24.60;82.70;;;;;;5157021;27;21007;-68
2022/06/16 08:03:34;;;;;;;9.90;9.00;;;24.80;83.80;;;;;;5156791;27;20424;-68
2022/06/16 08:06:06;;;;;;;9.33;8.63;;;24.80;82.90;;;;;;5157026;27;20442;-68
2022/06/16 08:08:34;;;;;;;9.10;8.40;;;25.00;81.40;;;;;;5157140;27;20472;-68
2022/06/16 08:11:01;;;;;;;8.87;8.07;;;24.90;83.20;;;;;;5157027;27;20548;-68
2022/06/16 08:13:28;;;;;;;9.20;8.50;;;25.20;84.50;;;;;;5156591;27;20477;-68
2022/06/16 08:15:56;;;;;;;9.33;8.63;;;25.40;80.70;;;;;;5156799;27;20441;-68
2022/06/16 08:18:25;;;;;;;9.73;9.00;;;25.70;80.10;;;;;;5156838;27;20528;-68
2022/06/16 08:20:53;;;;;;;8.77;8.10;;;25.70;79.70;;;;;;5156668;27;20552;-68
2022/06/16 08:23:20;;;;;;;9.10;8.40;;;25.60;81.90;;;;;;5156401;27;20501;-68
2022/06/16 08:25:49;;;;;;;9.33;8.43;;;25.90;80.00;;;;;;5156687;27;20446;-68
2022/06/16 08:28:18;;;;;;;9.30;8.47;;;26.40;77.30;;;;;;5156618;27;20467;-68
2022/06/16 08:30:46;;;;;;;9.63;8.83;;;26.90;76.20;;;;;;5156446;27;21030;-68
2022/06/16 08:33:15;;;;;;;9.40;8.70;;;27.50;74.00;;;;;;5155284;27;20568;-68
2022/06/16 08:35:43;;;;;;;9.47;8.57;;;28.20;71.60;;;;;;5156499;27;20535;-68
2022/06/16 08:38:10;;;;;;;9.13;8.30;;;28.90;67.50;;;;;;5156449;27;20437;-66
2022/06/16 08:40:43;;;;;;;9.10;8.40;;;29.60;62.70;;;;;;5156307;27;20508;-66
2022/06/16 08:43:23;;;;;;;9.20;8.40;;;30.50;59.40;;;;;;5155954;27;20524;-66
2022/06/16 08:45:54;;;;;;;7.97;7.37;;;30.90;57.90;;;;;;5156248;27;20517;-66
2022/06/16 08:48:34;;;;;;;8.93;8.17;;;30.90;56.50;;;;;;5156063;27;20445;-66
2022/06/16 08:51:07;;;;;;;8.73;8.03;;;29.80;55.40;;;;;;5156380;27;20532;-66
2022/06/16 08:53:56;;;;;;;8.73;8.10;;;29.10;57.70;;;;;;5155700;27;20583;-67
2022/06/16 08:56:34;;;;;;;8.07;7.37;;;28.70;57.80;;;;;;5156139;27;20508;-66
2022/06/16 08:59:09;;;;;;;7.90;7.30;;;29.00;57.40;;;;;;5155935;27;20919;-67
2022/06/16 09:01:41;;;;;;;7.27;6.83;;;29.40;54.70;;;;;;5155721;27;20472;-67
2022/06/16 09:04:11;;;;;;;8.03;7.30;;;30.30;53.40;;;;;;5155819;27;20921;-68
2022/06/16 09:06:51;;;;;;;8.10;7.60;;;31.90;51.90;;;;;;5153923;27;20449;-69
2022/06/16 09:12:32;;;;;;;7.13;6.67;;;34.60;47.20;;;;;;5154426;27;20472;-68
2022/06/16 09:15:12;;;;;;;7.00;6.60;;;35.80;43.10;;;;;;5154454;27;20904;-69
2022/06/16 09:17:47;;;;;;;6.90;6.50;;;37.00;42.20;;;;;;5154352;27;21038;-69
2022/06/16 09:20:18;;;;;;;8.50;7.87;;;37.30;39.30;;;;;;5154035;27;20863;-70
2022/06/16 09:23:05;;;;;;;7.47;6.97;;;37.30;38.80;;;;;;5154723;27;20429;-68
2022/06/16 09:25:46;;;;;;;7.13;6.60;;;37.40;38.60;;;;;;5154634;27;20441;-70
2022/06/16 09:28:17;;;;;;;7.90;7.40;;;37.10;39.00;;;;;;5154489;27;20521;-69
2022/06/16 09:30:49;;;;;;;7.83;7.33;;;37.10;38.60;;;;;;5153981;27;21038;-70
2022/06/16 09:33:21;;;;;;;8.50;7.83;;;37.00;39.20;;;;;;5153880;27;20988;-70
2022/06/16 09:35:53;;;;;;;8.40;7.90;;;36.40;41.10;;;;;;5153955;27;20536;-71
2022/06/16 09:38:24;;;;;;;8.27;7.67;;;37.20;41.40;;;;;;5154289;27;20525;-71
2022/06/16 09:40:58;;;;;;;8.27;7.67;;;37.30;40.30;;;;;;5154197;27;20461;-70
2022/06/16 09:43:32;;;;;;;8.60;8.00;;;36.70;39.50;;;;;;5153896;27;20532;-70
2022/06/16 09:46:04;;;;;;;7.93;7.43;;;35.80;41.50;;;;;;5154219;27;20520;-71
2022/06/16 09:48:35;;;;;;;8.13;7.53;;;36.40;40.90;;;;;;5154076;27;20473;-71
2022/06/16 09:51:07;;;;;;;7.87;7.37;;;37.10;38.30;;;;;;5153757;27;20548;-70
2022/06/16 09:53:39;;;;;;;7.87;7.27;;;37.50;38.90;;;;;;5153728;27;20572;-71
2022/06/16 09:56:10;;;;;;;7.70;7.27;;;38.20;38.60;;;;;;5154062;27;20537;-70
2022/06/16 09:58:44;;;;;;;7.70;7.20;;;38.00;37.90;;;;;;5154291;27;20451;-70
2022/06/16 10:01:16;;;;;;;9.13;8.53;;;38.70;37.00;;;;;;5153962;27;20551;-70
2022/06/16 10:03:52;;;;;;;7.90;7.33;;;38.90;36.60;;;;;;5153963;27;20529;-70
2022/06/16 10:06:26;;;;;;;8.20;7.70;;;38.40;37.60;;;;;;5154039;27;20448;-71
2022/06/16 10:09:03;;;;;;;8.23;7.77;;;38.90;36.70;;;;;;5153758;27;20533;-71
2022/06/16 10:11:40;;;;;;;8.90;8.30;;;37.90;36.60;;;;;;5153819;27;20492;-70
2022/06/16 10:14:16;;;;;;;8.00;7.50;;;36.40;38.90;;;;;;5153651;27;20512;-70
2022/06/16 10:16:50;;;;;;;8.60;8.10;;;34.80;40.90;;;;;;5154050;27;20468;-70
2022/06/16 10:19:19;;;;;;;8.27;7.70;;;34.70;41.90;;;;;;5153472;27;20444;-70
2022/06/16 10:21:47;;;;;;;7.93;7.33;;;35.80;41.90;;;;;;5153675;27;20472;-70
2022/06/16 10:24:16;;;;;;;8.00;7.50;;;35.70;42.10;;;;;;5153385;27;21002;-69
2022/06/16 10:26:42;;;;;;;8.00;7.40;;;36.30;40.70;;;;;;5153646;27;20540;-69
2022/06/16 10:29:22;;;;;;;8.70;8.10;;;36.00;41.40;;;;;;5153824;27;21013;-69
2022/06/16 10:31:51;;;;;;;8.27;7.67;;;35.80;42.50;;;;;;5153486;27;20465;-69
2022/06/16 10:34:26;;;;;;;8.43;7.77;;;35.00;43.20;;;;;;5153431;27;20557;-69
2022/06/16 10:36:58;;;;;;;9.37;8.57;;;33.80;43.60;;;;;;5154077;27;20445;-69
2022/06/16 10:39:31;;;;;;;8.30;7.80;;;32.80;45.80;;;;;;5154128;27;20514;-69
2022/06/16 10:42:03;;;;;;;9.53;8.83;;;31.80;47.90;;;;;;5153698;27;20569;-69
2022/06/16 10:44:32;;;;;;;8.20;7.60;;;31.30;47.80;;;;;;5153431;27;20441;-69
2022/06/16 10:47:03;;;;;;;8.60;8.00;;;31.10;49.50;;;;;;5153927;27;20544;-69
2022/06/16 10:49:33;;;;;;;8.37;7.77;;;31.00;48.70;;;;;;5153648;27;20537;-68
2022/06/16 10:52:04;;;;;;;7.97;7.47;;;30.40;50.30;;;;;;5153818;27;20552;-68
2022/06/16 10:54:35;;;;;;;8.00;7.40;;;30.00;49.90;;;;;;5153230;27;20483;-67
2022/06/16 10:57:15;;;;;;;8.17;7.57;;;29.90;50.50;;;;;;5156593;27;20543;-68
2022/06/16 10:59:48;;;;;;;8.90;8.20;;;29.90;51.40;;;;;;5157359;27;20870;-68
2022/06/16 11:02:22;;;;;;;7.87;7.37;;;29.90;51.80;;;;;;5157000;27;20548;-68
2022/06/16 11:04:55;;;;;;;8.40;7.80;;;29.80;52.80;;;;;;5157300;27;20441;-68
2022/06/16 11:07:24;;;;;;;7.77;7.17;;;29.60;52.00;;;;;;5157542;27;20524;-68
2022/06/16 11:09:52;;;;;;;9.03;8.10;;;29.60;52.70;;;;;;5157186;27;20540;-69
2022/06/16 11:12:22;;;;;;;8.23;7.53;;;29.40;51.60;;;;;;5156974;27;20535;-68
2022/06/16 11:14:55;;;;;;;8.40;7.80;;;29.20;52.60;;;;;;5156955;27;20571;-68
2022/06/16 11:17:26;;;;;;;8.73;7.67;;;29.20;51.60;;;;;;5157197;27;20438;-68
2022/06/16 11:20:00;;;;;;;8.53;8.00;;;29.30;52.10;;;;;;5156459;27;20452;-68
2022/06/16 11:22:31;;;;;;;8.40;7.70;;;29.00;52.60;;;;;;5156946;27;20528;-68
2022/06/16 11:25:03;;;;;;;8.60;8.00;;;28.90;53.30;;;;;;5157117;27;20443;-68
2022/06/16 11:27:41;;;;;;;9.20;8.60;;;28.70;54.80;;;;;;5157239;27;20470;-67
2022/06/16 11:30:34;;;;;;;8.63;8.00;;;28.80;54.80;;;;;;5156472;27;20449;-67
2022/06/16 11:33:02;;;;;;;9.10;8.20;;;28.90;53.90;;;;;;5156701;27;20476;-69
2022/06/16 11:35:38;;;;;;;7.70;7.20;;;29.20;54.80;;;;;;5156738;27;20931;-69
2022/06/16 11:38:14;;;;;;;8.73;8.17;;;29.50;53.10;;;;;;5156373;27;20445;-68
2022/06/16 11:40:46;;;;;;;8.63;8.03;;;29.70;53.00;;;;;;5156345;27;20460;-68
2022/06/16 11:43:46;;;;;;;8.47;7.87;;;29.60;52.20;;;;;;5156662;27;20527;-68
2022/06/16 11:46:20;;;;;;;8.23;7.73;;;29.60;53.00;;;;;;5143292;27;20540;-68
2022/06/16 11:49:09;;;;;;;8.40;7.70;;;29.60;51.40;;;;;;5155978;27;20475;-69
2022/06/16 11:51:44;;;;;;;8.67;8.07;;;29.50;51.20;;;;;;5156443;27;20467;-69
2022/06/16 11:54:22;;;;;;;8.57;7.97;;;29.50;51.20;;;;;;5156187;27;20574;-68
2022/06/16 11:56:55;;;;;;;8.30;7.60;;;29.40;52.00;;;;;;5156158;27;20806;-68
2022/06/16 11:59:34;;;;;;;8.43;7.73;;;29.00;52.20;;;;;;5155795;27;20430;-67
2022/06/16 12:02:19;;;;;;;8.67;8.00;;;29.10;53.10;;;;;;5156178;27;20481;-67
2022/06/16 12:05:00;;;;;;;7.90;7.30;;;28.90;52.90;;;;;;5156009;27;20535;-67
2022/06/16 12:07:57;;;;;;;7.57;7.07;;;29.10;51.80;;;;;;5154974;27;20799;-68
2022/06/16 12:10:32;;;;;;;8.37;7.57;;;29.10;52.10;;;;;;5156326;27;20471;-69
2022/06/16 12:13:09;;;;;;;7.93;7.33;;;29.30;52.70;;;;;;5155643;27;20539;-69
2022/06/16 12:15:39;;;;;;;6.80;6.30;;;29.30;51.80;;;;;;5155981;27;20535;-69
2022/06/16 12:18:20;;;;;;;7.60;6.70;;;29.50;50.70;;;;;;5155620;27;20535;-69
2022/06/16 12:21:02;;;;;;;7.40;6.90;;;29.50;48.80;;;;;;5155593;27;20544;-68
2022/06/16 12:23:35;;;;;;;7.70;7.20;;;29.50;49.90;;;;;;5155481;27;20522;-69
2022/06/16 12:26:09;;;;;;;8.07;7.37;;;29.50;50.60;;;;;;5155939;27;20775;-68
2022/06/16 12:28:42;;;;;;;8.13;7.53;;;29.30;50.20;;;;;;5155500;27;20506;-69
2022/06/16 12:31:16;;;;;;;7.97;7.37;;;29.30;49.90;;;;;;5155437;27;20485;-69
2022/06/16 12:33:47;;;;;;;7.90;7.20;;;29.30;50.30;;;;;;5154902;27;20568;-69
2022/06/16 12:36:19;;;;;;;7.47;6.87;;;29.20;51.20;;;;;;5155617;27;20445;-68
2022/06/16 12:38:48;;;;;;;7.67;7.17;;;29.10;50.10;;;;;;5155367;27;20515;-69
2022/06/16 12:41:20;;;;;;;7.63;7.03;;;29.20;51.50;;;;;;5154556;27;20471;-69
2022/06/16 12:43:52;;;;;;;7.20;6.80;;;29.30;49.50;;;;;;5154961;27;20476;-69
2022/06/16 12:46:25;;;;;;;7.20;6.67;;;29.20;49.80;;;;;;5155515;27;20484;-69
2022/06/16 12:48:56;;;;;;;8.20;7.60;;;28.90;49.70;;;;;;5155037;27;20423;-68
2022/06/16 12:51:36;;;;;;;7.80;7.30;;;28.90;50.30;;;;;;5154681;27;20503;-70
2022/06/16 12:54:06;;;;;;;7.73;7.13;;;28.90;50.80;;;;;;5154719;27;20564;-80
2022/06/16 12:56:39;;;;;;;7.97;7.27;;;28.90;50.30;;;;;;5157622;27;20836;-78
2022/06/16 12:59:13;;;;;;;7.37;6.87;;;29.10;52.10;;;;;;5156826;27;21022;-71
2022/06/16 13:01:40;;;;;;;7.60;7.10;;;29.10;50.00;;;;;;5155211;27;20539;-71
2022/06/16 13:04:13;;;;;;;7.93;7.23;;;29.20;49.40;;;;;;5154696;27;20520;-71
2022/06/16 13:06:43;;;;;;;7.87;7.27;;;29.00;50.80;;;;;;5155082;27;20528;-70
2022/06/16 13:09:12;;;;;;;7.70;7.20;;;28.80;50.60;;;;;;5154346;27;20961;-70
2022/06/16 13:11:46;;;;;;;7.27;6.77;;;28.80;50.20;;;;;;5154519;27;20473;-71
2022/06/16 13:14:22;;;;;;;7.63;7.03;;;28.70;51.40;;;;;;5154102;27;20478;-70
2022/06/16 13:16:50;;;;;;;7.50;6.90;;;28.70;50.00;;;;;;5154702;27;20538;-71
2022/06/16 13:19:22;;;;;;;7.63;7.13;;;28.80;49.30;;;;;;5154317;27;20535;-70
2022/06/16 13:21:55;;;;;;;7.67;7.10;;;29.00;50.40;;;;;;5154876;27;20464;-71
2022/06/16 13:24:34;;;;;;;6.70;6.30;;;29.20;50.30;;;;;;5154154;27;20833;-71
2022/06/16 13:27:09;;;;;;;7.10;6.60;;;29.30;47.20;;;;;;5154828;27;20512;-71